Latest Weather Observations for Walgett

IDN60801

Issued at 5:35 pm EST Friday 1 August 2014 (issued every 30 minutes, with the page automatically refreshed every 10 minutes)

About weather observations | Map of weather stations | Latest weather observations for NSW | Other Formats
Station Details ID: 052088 Name: WALGETT AIRPORT AWS Lat: -30.04 Lon: 148.12 Height: 133.0 m
Data from the previous 72 hours. | See also: Recent months at Walgett
Date/Time
EST
Temp
°C
App
Temp
°C
Dew
Point
Rel
Hum
%
Delta-T
°C
Wind Press
QNH
hPa
Press
MSL
hPa
Rain
since 9 am
mm
Dir
 
Spd
km/h
Gust
km/h
Spd
kts
Gust
kts
01/05:30pm 14.6 8.1 -6.3 23 7.7 WSW 20 28 11 15 1017.8 - 0.0
01/05:00pm 15.9 9.1 -5.2 23 8.1 SW 22 32 12 17 1017.2 - 0.0
01/04:30pm 16.4 8.9 -4.8 23 8.2 SW 26 35 14 19 1016.8 - 0.0
01/04:00pm 16.7 7.9 -4.5 23 8.3 SW 33 48 18 26 1016.3 - 0.0
01/03:43pm 17.0 8.3 -3.1 25 8.2 WSW 33 52 18 28 1016.1 - 0.0
01/03:30pm 17.6 8.4 -1.1 28 8.0 WSW 37 50 20 27 1015.8 - 0.0
01/03:00pm 17.0 7.8 -1.1 29 7.7 WSW 37 46 20 25 1015.6 1015.7 0.0
01/02:30pm 18.5 10.4 1.1 31 7.8 WSW 33 54 18 29 1015.0 - 0.0
01/02:28pm 19.1 11.3 1.6 31 8.0 WSW 32 54 17 29 1014.9 - 0.0
01/02:00pm 19.4 11.5 2.3 32 7.9 WSW 33 44 18 24 1014.8 - 0.0
01/01:30pm 18.4 10.6 1.9 33 7.5 W 32 48 17 26 1014.7 - 0.0
01/01:22pm 19.0 12.0 2.0 32 7.8 WSW 28 48 15 26 1014.8 - 0.0
01/01:00pm 19.1 12.3 2.9 34 7.6 W 28 41 15 22 1014.9 - 0.0
01/12:43pm 19.0 11.9 3.6 36 7.3 WSW 30 50 16 27 1014.9 - 0.0
01/12:30pm 18.4 10.6 3.1 36 7.1 W 33 43 18 23 1015.1 - 0.0
01/12:13pm 17.9 11.0 2.6 36 7.0 WSW 28 46 15 25 1015.2 - 0.0
01/12:00pm 18.2 11.4 2.9 36 7.1 WSW 28 41 15 22 1015.3 1015.4 0.0
01/11:30am 17.6 11.2 3.1 38 6.7 SW 26 39 14 21 1015.5 - 0.0
01/11:00am 17.1 11.2 3.8 41 6.2 SW 24 37 13 20 1015.6 - 0.0
01/10:30am 16.6 10.5 4.6 45 5.7 SW 26 35 14 19 1015.3 - 0.0
01/10:00am 15.6 9.5 4.9 49 5.1 SSW 26 37 14 20 1015.3 - 0.0
01/09:30am 15.2 9.1 4.6 49 5.0 SSW 26 35 14 19 1015.3 - 0.0
01/09:00am 13.7 5.8 -1.5 35 6.2 SW 30 41 16 22 1014.8 1014.9 0.0
01/08:30am 13.1 7.0 -3.6 31 6.4 W 19 22 10 12 1014.1 - 0.0
01/08:00am 11.3 6.3 -4.4 33 5.8 NW 13 17 7 9 1013.7 - 0.0
01/07:30am 9.7 5.1 -4.3 37 5.1 NW 11 15 6 8 1013.4 - 0.0
01/07:00am 9.2 4.2 -4.7 37 5.0 NW 13 15 7 8 1013.1 - 0.0
01/06:30am 10.9 5.5 -4.7 33 5.7 NNW 15 19 8 10 1012.4 - 0.0
01/06:00am 11.2 5.8 -4.5 33 5.8 NNW 15 17 8 9 1011.9 1011.9 0.0
01/05:30am 11.4 6.4 -4.7 32 5.9 NNW 13 19 7 10 1011.8 - 0.0
01/05:00am 12.0 6.6 -4.6 31 6.2 NNW 15 20 8 11 1011.8 - 0.0
01/04:30am 11.7 6.3 -4.4 32 6.0 NNW 15 19 8 10 1011.8 - 0.0
01/04:00am 11.4 6.4 -4.3 33 5.8 NNW 13 17 7 9 1011.9 - 0.0
01/03:30am 11.3 6.3 -4.4 33 5.8 NNW 13 17 7 9 1012.0 - 0.0
01/03:00am 10.9 6.3 -4.3 34 5.6 NW 11 15 6 8 1012.3 1012.3 0.0
01/02:30am 11.6 6.6 -4.1 33 5.9 NW 13 17 7 9 1012.7 - 0.0
01/02:00am 12.5 7.6 -3.7 32 6.2 NNW 13 15 7 8 1012.6 - 0.0
01/01:30am 12.9 8.0 -3.8 31 6.4 NNW 13 17 7 9 1012.8 - 0.0
01/01:00am 13.2 7.9 -3.5 31 6.5 NW 15 17 8 9 1012.9 - 0.0
01/12:30am 13.7 9.2 -3.5 30 6.7 NNW 11 15 6 8 1012.8 - 0.0
01/12:00am 14.0 9.6 -2.8 31 6.7 NNW 11 15 6 8 1012.8 1012.8 0.0
 
Date/Time
EST
Temp
°C
App
Temp
°C
Dew
Point
Rel
Hum
%
Delta-T
°C
Wind Press
QNH
hPa
Press
MSL
hPa
Rain
since 9 am
mm
Dir
 
Spd
km/h
Gust
km/h
Spd
kts
Gust
kts
31/11:30pm 14.3 9.8 -3.0 30 6.8 NNW 11 13 6 7 1012.9 - 0.0
31/11:00pm 14.2 9.7 -3.6 29 6.9 N 11 13 6 7 1013.1 - 0.0
31/10:30pm 15.1 10.7 -2.8 29 7.2 NNW 11 15 6 8 1013.2 - 0.0
31/10:00pm 15.4 10.9 -3.0 28 7.4 NNW 11 13 6 7 1013.0 - 0.0
31/09:30pm 16.2 11.8 -2.8 27 7.7 N 11 15 6 8 1013.1 - 0.0
31/09:00pm 12.8 8.8 -2.6 34 6.0 N 9 11 5 6 1013.0 1013.2 0.0
31/08:30pm 13.1 8.7 -2.8 33 6.2 N 11 13 6 7 1012.9 - 0.0
31/08:00pm 13.1 9.4 -2.8 33 6.2 N 7 9 4 5 1013.1 - 0.0
31/07:30pm 13.6 9.4 -4.1 29 6.8 N 9 9 5 5 1013.0 - 0.0
31/07:25pm 13.8 9.5 -4.8 27 7.0 N 9 9 5 5 1013.0 - 0.0
31/07:00pm 18.8 14.6 -4.0 21 9.2 N 9 11 5 6 1013.1 - 0.0
31/06:30pm 20.1 15.9 -4.2 19 9.9 NNW 9 13 5 7 1013.0 - 0.0
31/06:00pm 21.1 16.9 -4.1 18 10.4 NW 9 11 5 6 1012.9 1013.0 0.0
31/05:30pm 22.2 17.1 -4.8 16 11.1 NNW 13 17 7 9 1012.9 - 0.0
31/05:00pm 24.0 18.2 -5.1 14 12.1 NW 17 26 9 14 1012.8 - 0.0
31/04:30pm 24.7 18.0 -4.6 14 12.4 NW 22 30 12 16 1012.9 - 0.0
31/04:00pm 25.2 18.5 -4.2 14 12.6 NNW 22 37 12 20 1012.9 - 0.0
31/03:30pm 25.2 18.1 -4.2 14 12.6 NW 24 32 13 17 1013.0 - 0.0
31/03:00pm 25.2 18.1 -4.2 14 12.6 NNW 24 35 13 19 1013.2 1013.4 0.0
31/02:30pm 25.6 17.8 -3.8 14 12.7 NW 28 44 15 24 1013.6 - 0.0
31/02:00pm 25.5 18.0 -4.9 13 12.9 NW 26 41 14 22 1013.9 - 0.0
31/01:30pm 25.1 18.3 -5.2 13 12.7 NNW 22 35 12 19 1014.5 - 0.0
31/01:00pm 24.7 18.6 -3.6 15 12.2 N 19 24 10 13 1015.2 - 0.0
31/12:30pm 24.1 17.9 -3.3 16 11.8 NNW 20 28 11 15 1016.1 - 0.0
31/12:00pm 23.8 17.8 -2.7 17 11.5 N 19 30 10 16 1017.1 1017.3 0.0
31/11:30am 22.9 16.5 -1.9 19 10.9 N 22 32 12 17 1018.2 - 0.0
31/11:00am 22.4 16.4 -1.6 20 10.6 N 20 30 11 16 1018.9 - 0.0
31/10:30am 21.0 15.4 -0.3 24 9.5 N 19 24 10 13 1019.3 - 0.0
31/10:00am 19.6 13.9 -0.9 25 8.9 N 19 26 10 14 1019.7 - 0.0
31/09:30am 17.6 12.0 -0.2 30 7.7 N 19 22 10 12 1019.9 - 0.0
31/09:00am 15.5 10.9 -0.7 33 6.8 N 13 19 7 10 1020.0 1020.2 0.0
31/08:30am 13.8 9.7 -0.3 38 5.9 N 11 15 6 8 1020.0 - 0.0
31/08:00am 9.7 5.6 0.1 51 3.9 N 11 13 6 7 1020.0 - 0.0
31/07:30am 5.6 1.3 -1.5 60 2.6 NNE 11 13 6 7 1019.9 - 0.0
31/07:00am 5.2 0.9 -1.7 61 2.5 NNE 11 13 6 7 1019.5 - 0.0
31/06:30am 4.9 0.5 -2.2 60 2.6 NNE 11 13 6 7 1019.5 - 0.0
31/06:00am 5.6 1.3 -1.8 59 2.7 NNE 11 13 6 7 1019.2 1019.4 0.0
31/05:30am 5.1 0.9 -1.1 64 2.3 NNE 11 13 6 7 1019.1 - 0.0
31/05:00am 5.1 1.5 -2.0 60 2.6 N 7 9 4 5 1018.8 - 0.0
31/04:30am 5.0 1.5 -1.0 65 2.2 N 7 9 4 5 1018.7 - 0.0
31/04:00am 5.1 1.6 -1.6 62 2.5 NNW 7 7 4 4 1018.8 - 0.0
31/03:30am 5.3 1.7 -2.0 59 2.7 NNW 7 9 4 5 1018.7 - 0.0
31/03:00am 6.3 2.9 -0.7 61 2.7 NNW 7 7 4 4 1018.9 1019.0 0.0
31/02:30am 5.1 1.6 -1.6 62 2.5 N 7 9 4 5 1019.2 - 0.0
31/02:00am 6.5 3.0 -1.4 57 3.0 NNW 7 9 4 5 1019.4 - 0.0
31/01:30am 8.4 4.6 -1.1 51 3.7 N 9 9 5 5 1019.6 - 0.0
31/01:00am 6.8 3.0 -0.9 58 2.9 N 9 11 5 6 1020.0 - 0.0
31/12:30am 6.5 2.6 -1.6 56 3.0 N 9 9 5 5 1020.0 - 0.0
 
Date/Time
EST
Temp
°C
App
Temp
°C
Dew
Point
Rel
Hum
%
Delta-T
°C
Wind Press
QNH
hPa
Press
MSL
hPa
Rain
since 9 am
mm
Dir
 
Spd
km/h
Gust
km/h
Spd
kts
Gust
kts
30/11:30pm 7.2 3.7 -1.0 56 3.1 N 7 9 4 5 1020.2 - 0.0
30/11:00pm 7.3 4.0 -0.9 56 3.2 N 6 9 3 5 1020.3 - 0.0
30/10:30pm 7.5 5.3 -1.2 54 3.3 CALM 0 0 0 0 1020.4 - 0.0
30/10:00pm 9.7 7.9 0.9 54 3.6 CALM 0 0 0 0 1020.7 - 0.0
30/09:30pm 9.3 7.2 -0.6 50 3.9 CALM 0 0 0 0 1020.8 - 0.0
30/09:00pm 10.8 8.7 -0.6 45 4.6 CALM 0 0 0 0 1020.9 1021.1 0.0
30/08:30pm 11.9 9.7 -1.6 39 5.4 CALM 0 0 0 0 1020.8 - 0.0
30/08:00pm 12.3 9.9 -3.1 34 5.9 CALM 0 0 0 0 1020.8 - 0.0
30/07:30pm 14.4 11.1 -1.6 33 6.5 WNW 6 7 3 4 1020.7 - 0.0
30/07:00pm 11.5 7.1 -2.7 37 5.5 NNE 11 15 6 8 1020.5 - 0.0
30/06:30pm 15.8 12.6 -0.8 32 7.0 NW 6 6 3 3 1020.0 - 0.0
30/06:00pm 17.4 13.9 -2.8 25 8.3 WNW 6 7 3 4 1019.7 1019.9 0.0
30/05:30pm 21.0 17.4 -2.1 21 9.9 W 7 9 4 5 1019.6 - 0.0
30/05:00pm 22.6 17.6 -1.5 20 10.6 W 15 19 8 10 1019.4 - 0.0
30/04:30pm 23.7 19.4 -1.3 19 11.2 W 11 15 6 8 1019.2 - 0.0
30/04:00pm 24.0 19.3 -1.8 18 11.5 NW 13 19 7 10 1019.1 - 0.0
30/03:30pm 23.8 18.7 -1.9 18 11.4 NW 15 22 8 12 1019.1 - 0.0
30/03:00pm 24.1 18.7 -1.7 18 11.5 NW 17 20 9 11 1019.2 1019.4 0.0
30/02:30pm 23.7 19.4 -1.3 19 11.2 NW 11 19 6 10 1019.4 - 0.0
30/02:00pm 23.5 18.5 -1.4 19 11.1 WNW 15 22 8 12 1020.0 - 0.0
30/01:30pm 23.4 18.9 -0.1 21 10.7 W 13 20 7 11 1020.4 - 0.0
30/01:00pm 23.1 18.7 0.2 22 10.5 NW 13 22 7 12 1020.8 - 0.0
30/12:30pm 22.7 17.9 -0.1 22 10.3 WNW 15 22 8 12 1021.4 - 0.0
30/12:00pm 21.9 17.1 -0.1 23 9.9 NW 15 20 8 11 1022.0 1022.2 0.0
30/11:30am 21.4 16.9 -0.6 23 9.8 WNW 13 20 7 11 1022.6 - 0.0
30/11:00am 20.6 17.1 1.0 27 8.9 NW 9 15 5 8 1023.1 - 0.0
30/10:30am 19.1 15.1 0.2 28 8.4 NW 11 15 6 8 1023.5 - 0.0
30/10:00am 17.7 13.2 -0.1 30 7.7 NW 13 17 7 9 1023.7 - 0.0
30/09:30am 16.0 11.9 -0.2 33 6.9 NW 11 17 6 9 1023.8 - 0.0
30/09:00am 14.2 10.4 -0.6 36 6.1 NW 9 11 5 6 1023.9 1024.1 0.0
30/08:30am 11.8 8.5 0.0 44 4.9 NNW 7 11 4 6 1023.8 - 0.0
30/08:00am 7.8 5.2 1.0 62 2.8 NNW 4 6 2 3 1023.7 - 0.0
30/07:30am 4.4 2.2 -1.2 67 2.1 CALM 0 0 0 0 1023.4 - 0.0
30/07:00am 3.6 1.4 -1.3 70 1.8 CALM 0 0 0 0 1022.9 - 0.0
30/06:30am 3.6 1.4 -1.7 68 1.9 CALM 0 0 0 0 1022.4 - 0.0
30/06:00am 5.0 2.5 -1.2 64 2.3 NNW 2 6 1 3 1022.1 1022.3 0.0
30/05:30am 4.5 1.0 -1.7 64 2.3 NNW 7 9 4 5 1021.8 - 0.0
30/05:00am 5.9 2.4 -1.0 61 2.6 N 7 9 4 5 1021.6 - 0.0
30/04:30am 4.7 0.8 -1.7 63 2.3 N 9 11 5 6 1021.6 - 0.0
30/04:00am 4.9 1.4 -1.1 65 2.2 NNW 7 9 4 5 1021.7 - 0.0
30/03:30am 4.9 1.4 -1.1 65 2.2 NNW 7 9 4 5 1021.6 - 0.0
30/03:00am 4.5 1.1 -1.7 64 2.3 N 6 7 3 4 1021.6 1021.8 0.0
30/02:30am 5.1 1.6 -1.1 64 2.3 N 7 9 4 5 1021.7 - 0.0
30/02:00am 5.6 2.3 -1.5 60 2.6 N 6 7 3 4 1021.7 - 0.0
30/01:30am 5.0 1.6 -0.6 67 2.1 N 7 9 4 5 1021.8 - 0.0
30/01:00am 3.9 1.3 -1.5 68 2.0 N 2 11 1 6 1021.9 - 0.0
30/12:30am 5.0 2.8 -1.7 62 2.5 CALM 0 0 0 0 1022.1 - 0.0
30/12:00am 5.2 3.0 -1.7 61 2.5 CALM 0 0 0 0 1022.0 1022.2 0.0
 
Date/Time
EST
Temp
°C
App
Temp
°C
Dew
Point
Rel
Hum
%
Delta-T
°C
Wind Press
QNH
hPa
Press
MSL
hPa
Rain
since 9 am
mm
Dir
 
Spd
km/h
Gust
km/h
Spd
kts
Gust
kts
29/11:30pm 5.4 3.1 -2.2 58 2.8 CALM 0 0 0 0 1022.1 - 0.0
29/11:00pm 6.7 3.5 -0.7 59 2.8 NNW 6 7 3 4 1022.1 - 0.0
29/10:30pm 7.3 3.9 -0.9 56 3.2 NNE 7 9 4 5 1022.1 - 0.0
29/10:00pm 7.9 5.0 -0.8 54 3.4 N 4 6 2 3 1022.0 - 0.0
29/09:30pm 7.8 4.6 -0.7 55 3.3 N 6 6 3 3 1021.9 - 0.0
29/09:00pm 8.3 4.8 -1.0 52 3.6 NNE 7 9 4 5 1021.8 1022.0 0.0
29/08:30pm 9.4 7.2 -1.6 46 4.3 CALM 0 0 0 0 1021.6 - 0.0
29/08:00pm 10.5 8.4 -0.9 45 4.5 CALM 0 0 0 0 1021.3 - 0.0
29/07:30pm 11.5 9.3 -1.3 41 5.1 CALM 0 0 0 0 1021.1 - 0.0
29/07:00pm 12.4 10.1 -2.6 35 5.9 CALM 0 0 0 0 1021.0 - 0.0
29/06:30pm 14.0 10.4 -3.3 30 6.8 W 6 7 3 4 1020.5 - 0.0
29/06:00pm 15.7 12.0 -3.2 27 7.5 WNW 7 7 4 4 1020.3 1020.5 0.0

Other Formats:

Comma delimited format used in spreadsheet applications
http://www.bom.gov.au/fwo/IDN60801/IDN60801.95715.axf

JavaScript Object Notation format (JSON) in row-major order
http://www.bom.gov.au/fwo/IDN60801/IDN60801.95715.json